Time;durP1;ratioP1;P1;durP2;ratioP2;P2;SDS_P1;SDS_P2;PMS_P1;PMS_P2;Temp;Humidity;BMP_temperature;BMP_pressure;BME280_temperature;BME280_humidity;BME280_pressure;Samples;Min_cycle;Max_cycle;Signal;HPM_P1;HPM_P2
2021/05/07 00:00:31;;;;;;;2.50;1.63;;;9.70;99.90;;;;;;6201074;28;20473;-81
2021/05/07 00:03:32;;;;;;;3.97;2.30;;;9.70;99.90;;;;;;6217747;28;20026;-81
2021/05/07 00:06:32;;;;;;;5.68;2.30;;;9.60;99.90;;;;;;6201239;28;20027;-81
2021/05/07 00:09:33;;;;;;;3.55;2.60;;;9.90;99.90;;;;;;6184961;28;20034;-81
2021/05/07 00:12:33;;;;;;;4.00;1.77;;;9.50;99.90;;;;;;6218760;28;20042;-81
2021/05/07 00:15:34;;;;;;;2.78;1.70;;;9.80;99.90;;;;;;6200993;28;20468;-81
2021/05/07 00:18:37;;;;;;;3.97;2.00;;;9.50;99.90;;;;;;6184930;28;20044;-81
2021/05/07 00:21:38;;;;;;;3.10;1.77;;;9.90;99.90;;;;;;6217392;28;20026;-81
2021/05/07 00:24:39;;;;;;;5.38;2.17;;;10.00;99.90;;;;;;6184839;28;20427;-80
2021/05/07 00:27:39;;;;;;;3.92;2.00;;;9.50;99.90;;;;;;6217231;28;20105;-81
2021/05/07 00:30:40;;;;;;;5.28;1.90;;;9.40;99.90;;;;;;6218857;28;20061;-80
2021/05/07 00:33:41;;;;;;;4.10;1.90;;;;;;;;;;6217251;28;20117;-81
2021/05/07 00:36:42;;;;;;;4.75;1.92;;;;;;;;;;6217099;28;20073;-81
2021/05/07 00:39:43;;;;;;;5.45;2.33;;;;;;;;;;6217108;28;20072;-81
2021/05/07 00:42:44;;;;;;;3.58;2.40;;;;;;;;;;6218787;28;20076;-80
2021/05/07 00:45:45;;;;;;;5.40;2.35;;;;;;;;;;6217421;28;20030;-81
2021/05/07 00:48:46;;;;;;;7.18;2.17;;;9.70;99.90;;;;;;6216840;28;20022;-80
2021/05/07 00:51:47;;;;;;;7.95;2.95;;;;;;;;;;6184398;28;20794;-81
2021/05/07 00:54:48;;;;;;;7.15;2.45;;;;;;;;;;6218278;28;20715;-80
2021/05/07 00:57:49;;;;;;;6.10;2.90;;;;;;;;;;6221589;28;20080;-81
2021/05/07 01:00:50;;;;;;;4.90;2.53;;;9.50;99.90;;;;;;6205552;28;20042;-80
2021/05/07 01:03:51;;;;;;;5.07;2.30;;;;;;;;;;6205343;28;20921;-80
2021/05/07 01:06:52;;;;;;;6.25;2.20;;;9.00;99.90;;;;;;6223104;28;20032;-80
2021/05/07 01:09:53;;;;;;;2.90;1.70;;;9.00;99.90;;;;;;6188555;28;20038;-80
2021/05/07 01:12:54;;;;;;;4.15;2.15;;;;;;;;;;6205470;28;20100;-81
2021/05/07 01:15:54;;;;;;;4.97;2.10;;;8.90;99.90;;;;;;6205210;28;20121;-81
2021/05/07 01:18:55;;;;;;;2.78;1.73;;;9.90;99.90;;;;;;6221320;28;20033;-81
2021/05/07 01:21:56;;;;;;;3.35;1.70;;;;;;;;;;6220725;28;20096;-81
2021/05/07 01:24:56;;;;;;;3.70;1.83;;;8.80;99.90;;;;;;6204868;28;20492;-81
2021/05/07 01:28:01;;;;;;;2.17;1.35;;;8.80;99.90;;;;;;6188373;28;20033;-82
2021/05/07 01:31:02;;;;;;;1.65;1.55;;;8.50;99.90;;;;;;6204923;28;20112;-82
2021/05/07 01:34:04;;;;;;;4.10;1.70;;;9.00;99.90;;;;;;6188417;28;20049;-82
2021/05/07 01:37:04;;;;;;;6.70;2.40;;;8.80;99.90;;;;;;6204250;28;20431;-82
2021/05/07 01:40:32;;;;;;;5.93;1.95;;;9.00;99.90;;;;;;6204591;28;20088;-82
2021/05/07 01:43:33;;;;;;;4.25;2.05;;;8.80;99.90;;;;;;6199330;28;20044;-81
2021/05/07 01:46:34;;;;;;;3.25;2.00;;;8.90;99.90;;;;;;6204538;28;20120;-81
2021/05/07 01:49:34;;;;;;;6.00;2.30;;;8.70;99.90;;;;;;6204441;28;20617;-81
2021/05/07 01:52:35;;;;;;;2.83;2.00;;;8.80;99.90;;;;;;6203962;28;20066;-81
2021/05/07 01:55:37;;;;;;;3.47;2.35;;;9.00;99.90;;;;;;6220492;28;20571;-81
2021/05/07 01:58:38;;;;;;;5.82;2.35;;;8.70;99.90;;;;;;6187876;28;20041;-81
2021/05/07 02:01:39;;;;;;;4.00;1.80;;;;;;;;;;6203688;28;20033;-82
2021/05/07 02:04:40;;;;;;;5.30;2.35;;;8.70;99.90;;;;;;6204376;28;20080;-81
2021/05/07 02:07:44;;;;;;;5.28;2.13;;;8.60;99.90;;;;;;6203594;28;20031;-82
2021/05/07 02:10:45;;;;;;;6.57;2.00;;;9.20;99.90;;;;;;6203915;28;20034;-82
2021/05/07 02:13:46;;;;;;;3.35;1.92;;;;;;;;;;6187449;28;20045;-82
2021/05/07 02:16:46;;;;;;;5.38;2.13;;;8.50;99.90;;;;;;6220293;28;20100;-82
2021/05/07 02:19:47;;;;;;;3.70;1.98;;;9.10;99.90;;;;;;6203673;28;20436;-81
2021/05/07 02:22:48;;;;;;;3.65;1.60;;;8.80;99.90;;;;;;6203564;28;20380;-82
2021/05/07 02:25:49;;;;;;;4.00;1.90;;;8.90;99.90;;;;;;6203736;28;20084;-81
2021/05/07 02:28:49;;;;;;;4.00;1.75;;;8.70;99.90;;;;;;6203570;28;20062;-82
2021/05/07 02:31:50;;;;;;;3.90;2.17;;;9.10;99.90;;;;;;6203484;28;20592;-81
2021/05/07 02:34:51;;;;;;;3.78;2.28;;;;;;;;;;6220494;28;20067;-82
2021/05/07 02:37:52;;;;;;;4.25;2.03;;;;;;;;;;6219371;28;20029;-82
2021/05/07 02:40:52;;;;;;;2.20;2.00;;;8.70;99.90;;;;;;6202905;28;20088;-82
2021/05/07 02:43:53;;;;;;;2.78;1.70;;;;;;;;;;6187245;28;20053;-82
2021/05/07 02:46:54;;;;;;;3.83;2.22;;;8.70;99.90;;;;;;6202913;28;20045;-82
2021/05/07 02:49:55;;;;;;;2.10;1.70;;;8.80;99.90;;;;;;6202640;28;20046;-82
2021/05/07 02:52:55;;;;;;;4.93;1.98;;;8.90;99.90;;;;;;6186341;28;20369;-82
2021/05/07 02:55:56;;;;;;;2.58;1.60;;;9.00;99.90;;;;;;6202454;28;20030;-83
2021/05/07 02:58:56;;;;;;;2.88;1.98;;;8.70;99.90;;;;;;6202391;28;20032;-82
2021/05/07 03:01:57;;;;;;;3.38;2.30;;;10.30;99.90;;;;;;6186457;28;20475;-82
2021/05/07 03:04:58;;;;;;;1.88;1.60;;;9.10;99.90;;;;;;6202428;28;20101;-82
2021/05/07 03:07:58;;;;;;;1.23;1.15;;;9.70;99.90;;;;;;6202718;28;20026;-81
2021/05/07 03:10:59;;;;;;;2.65;1.30;;;9.10;99.90;;;;;;6202568;28;20109;-82
2021/05/07 03:13:59;;;;;;;1.25;1.13;;;8.60;99.90;;;;;;6218757;28;20468;-82
2021/05/07 03:17:00;;;;;;;1.85;1.30;;;8.60;99.90;;;;;;6201827;28;20481;-82
2021/05/07 03:20:01;;;;;;;3.03;1.55;;;9.10;99.90;;;;;;6186059;28;20026;-82
2021/05/07 03:23:01;;;;;;;4.95;2.00;;;8.40;99.90;;;;;;6218916;28;20479;-82
2021/05/07 03:26:02;;;;;;;4.78;2.33;;;8.70;99.90;;;;;;6202513;28;20025;-83
2021/05/07 03:29:03;;;;;;;3.80;1.88;;;8.80;99.90;;;;;;6186220;28;20480;-83
2021/05/07 03:32:05;;;;;;;3.08;1.30;;;8.70;99.90;;;;;;6219674;28;20065;-82
2021/05/07 03:35:06;;;;;;;2.15;1.77;;;8.60;99.90;;;;;;6202631;28;20029;-82
2021/05/07 03:38:07;;;;;;;4.38;2.10;;;8.60;99.90;;;;;;6202163;28;20427;-83
2021/05/07 03:41:07;;;;;;;3.13;1.63;;;8.40;99.90;;;;;;6185724;28;20488;-80
2021/05/07 03:44:08;;;;;;;4.43;1.98;;;8.60;99.90;;;;;;6201754;28;20045;-81
2021/05/07 03:47:09;;;;;;;4.25;1.80;;;;;;;;;;6185621;28;20491;-81
2021/05/07 03:50:10;;;;;;;5.85;2.25;;;8.60;99.90;;;;;;6202070;28;20018;-81
2021/05/07 03:53:11;;;;;;;4.75;2.30;;;8.40;99.90;;;;;;6185517;28;20080;-81
2021/05/07 03:56:12;;;;;;;7.60;2.63;;;8.70;99.90;;;;;;6185656;28;20042;-81
2021/05/07 03:59:13;;;;;;;7.53;2.28;;;8.90;99.90;;;;;;6185567;28;20061;-81
2021/05/07 04:02:14;;;;;;;7.43;2.40;;;8.60;99.90;;;;;;6217568;28;20030;-81
2021/05/07 04:05:14;;;;;;;5.90;2.50;;;8.60;99.90;;;;;;6201455;28;20034;-81
2021/05/07 04:08:21;;;;;;;4.80;2.25;;;8.80;99.90;;;;;;6201304;28;20028;-81
2021/05/07 04:11:32;;;;;;;6.13;2.38;;;8.60;99.90;;;;;;6202307;28;20034;-81
2021/05/07 04:14:33;;;;;;;5.60;2.38;;;8.60;99.90;;;;;;6217823;28;20145;-81
2021/05/07 04:17:33;;;;;;;7.28;2.70;;;8.60;99.90;;;;;;6217407;28;20022;-81
2021/05/07 04:20:34;;;;;;;7.22;2.60;;;8.60;99.90;;;;;;6185377;28;20026;-81
2021/05/07 04:23:42;;;;;;;5.53;2.10;;;8.50;99.90;;;;;;6218615;28;20041;-81
2021/05/07 04:26:42;;;;;;;4.95;2.72;;;8.90;99.90;;;;;;6200937;28;20026;-80
2021/05/07 04:29:43;;;;;;;4.43;2.30;;;9.60;99.90;;;;;;6199813;28;20037;-81
2021/05/07 04:32:44;;;;;;;6.05;2.45;;;8.70;99.90;;;;;;6200900;28;20117;-81
2021/05/07 04:35:44;;;;;;;5.88;2.28;;;8.50;99.90;;;;;;6200688;28;20037;-81
2021/05/07 04:38:45;;;;;;;4.60;2.33;;;8.60;99.90;;;;;;6184736;28;20026;-82
2021/05/07 04:41:45;;;;;;;10.13;2.85;;;8.90;99.90;;;;;;6201129;28;20034;-81
2021/05/07 04:44:46;;;;;;;6.93;3.13;;;8.60;99.90;;;;;;6217475;28;20105;-80
2021/05/07 04:47:47;;;;;;;7.50;3.45;;;8.70;99.90;;;;;;6200902;28;20025;-81
2021/05/07 04:50:47;;;;;;;7.38;2.55;;;8.70;99.90;;;;;;6201089;28;20069;-80
2021/05/07 04:53:48;;;;;;;7.53;3.00;;;8.60;99.90;;;;;;6200811;28;20060;-81
2021/05/07 04:56:48;;;;;;;7.43;2.97;;;8.80;99.90;;;;;;6200740;28;20022;-80
2021/05/07 04:59:49;;;;;;;8.98;3.22;;;8.80;99.90;;;;;;6200503;28;20623;-80
2021/05/07 05:02:49;;;;;;;8.93;3.50;;;8.20;99.90;;;;;;6217290;28;20057;-80
2021/05/07 05:05:50;;;;;;;4.07;1.85;;;;;;;;;;6201421;28;20071;-82
2021/05/07 05:08:51;;;;;;;1.52;0.75;;;8.20;99.90;;;;;;6217919;28;20037;-80
2021/05/07 05:11:52;;;;;;;0.80;0.70;;;8.00;99.90;;;;;;6217897;28;20054;-80
2021/05/07 05:14:52;;;;;;;0.57;0.57;;;7.90;99.90;;;;;;6217387;28;20077;-81
2021/05/07 05:17:53;;;;;;;1.38;0.80;;;7.70;99.90;;;;;;6201287;28;20026;-82
2021/05/07 05:20:59;;;;;;;1.35;1.00;;;7.50;99.90;;;;;;6202427;28;20040;-81
2021/05/07 05:24:00;;;;;;;0.90;0.90;;;7.40;99.90;;;;;;6201032;28;20029;-81
2021/05/07 05:27:01;;;;;;;1.08;0.88;;;;;;;;;;6200919;28;20060;-79
2021/05/07 05:30:05;;;;;;;1.55;1.42;;;7.40;99.90;;;;;;6216768;28;20061;-78
2021/05/07 05:33:05;;;;;;;1.38;0.82;;;7.40;99.90;;;;;;6200875;28;20480;-78
2021/05/07 05:36:06;;;;;;;0.50;0.50;;;7.30;99.90;;;;;;6218122;28;20085;-81
2021/05/07 05:39:09;;;;;;;0.43;0.43;;;7.10;99.90;;;;;;6217326;28;20022;-84
2021/05/07 05:42:10;;;;;;;0.50;0.50;;;7.10;99.90;;;;;;6188042;28;20076;-79
2021/05/07 05:45:11;;;;;;;0.75;0.75;;;6.90;99.90;;;;;;6222778;28;20062;-82
2021/05/07 05:48:15;;;;;;;1.08;0.63;;;6.70;99.90;;;;;;6205589;28;20087;-79
2021/05/07 05:51:15;;;;;;;0.28;0.28;;;6.80;99.90;;;;;;6188401;28;20033;-80
2021/05/07 05:54:16;;;;;;;0.47;0.47;;;;;;;;;;6220944;28;20056;-82
2021/05/07 05:57:19;;;;;;;0.60;0.60;;;;;;;;;;6222227;28;20084;-79
2021/05/07 06:00:20;;;;;;;0.93;0.65;;;7.30;99.90;;;;;;6204343;28;20103;-79
2021/05/07 06:03:22;;;;;;;0.63;0.63;;;6.90;99.90;;;;;;6204445;28;20054;-80
2021/05/07 06:06:23;;;;;;;0.47;0.47;;;;;;;;;;6204042;28;20083;-79
2021/05/07 06:09:24;;;;;;;0.73;0.73;;;6.50;99.90;;;;;;6204814;28;20030;-79
2021/05/07 06:12:25;;;;;;;1.10;1.10;;;6.60;99.90;;;;;;6220816;28;20069;-80
2021/05/07 06:15:26;;;;;;;0.90;0.90;;;;;;;;;;6204389;28;20583;-81
2021/05/07 06:18:26;;;;;;;0.60;0.60;;;6.70;99.90;;;;;;6221131;28;20033;-79
2021/05/07 06:21:27;;;;;;;0.57;0.32;;;6.80;99.90;;;;;;6220605;28;20030;-78
2021/05/07 06:24:28;;;;;;;0.82;0.82;;;;;;;;;;6188052;28;20030;-78
2021/05/07 06:27:29;;;;;;;0.75;0.75;;;;;;;;;;6220492;28;20029;-80
2021/05/07 06:30:29;;;;;;;0.88;0.88;;;6.50;99.90;;;;;;6219954;28;20192;-79
2021/05/07 06:33:30;;;;;;;0.90;0.90;;;7.00;99.90;;;;;;6204364;28;20037;-81
2021/05/07 06:36:31;;;;;;;1.35;0.77;;;7.00;99.90;;;;;;6219947;28;20029;-79
2021/05/07 06:39:31;;;;;;;0.68;0.68;;;7.00;99.90;;;;;;6187821;28;20049;-80
2021/05/07 06:42:35;;;;;;;0.20;0.20;;;7.00;99.90;;;;;;6219663;28;20634;-80
2021/05/07 06:45:36;;;;;;;0.52;0.52;;;7.90;99.90;;;;;;6204383;28;20598;-80
2021/05/07 06:48:37;;;;;;;0.60;0.60;;;7.00;99.90;;;;;;6203833;28;20033;-79
2021/05/07 06:51:38;;;;;;;0.40;0.40;;;7.00;99.90;;;;;;6186701;28;20112;-79
2021/05/07 06:54:39;;;;;;;0.52;0.52;;;6.90;99.90;;;;;;6187001;28;20045;-81
2021/05/07 06:57:40;;;;;;;0.47;0.47;;;7.40;99.90;;;;;;6203358;28;20030;-81
2021/05/07 07:00:41;;;;;;;0.45;0.45;;;7.50;99.90;;;;;;6202864;28;20109;-79
2021/05/07 07:03:42;;;;;;;0.43;0.43;;;7.10;99.90;;;;;;6203049;28;20099;-84
2021/05/07 07:06:43;;;;;;;0.40;0.40;;;7.30;99.90;;;;;;6219933;28;20030;-83
2021/05/07 07:09:44;;;;;;;0.60;0.60;;;7.20;99.90;;;;;;6202930;28;20046;-79
2021/05/07 07:12:44;;;;;;;1.10;0.75;;;7.10;99.90;;;;;;6186823;28;20044;-82
2021/05/07 07:15:45;;;;;;;0.30;0.30;;;6.90;99.90;;;;;;6219403;28;20041;-80
2021/05/07 07:18:46;;;;;;;1.00;0.70;;;6.90;99.90;;;;;;6203118;28;20447;-79
2021/05/07 07:21:47;;;;;;;0.50;0.50;;;6.90;99.90;;;;;;6203001;28;20038;-83
2021/05/07 07:24:49;;;;;;;1.20;1.08;;;7.30;99.90;;;;;;6202685;28;20532;-79
2021/05/07 07:27:49;;;;;;;1.42;1.33;;;7.10;99.90;;;;;;6203304;28;20022;-81
2021/05/07 07:30:50;;;;;;;1.75;1.25;;;8.50;99.90;;;;;;6218532;28;20056;-80
2021/05/07 07:33:51;;;;;;;1.08;1.08;;;7.00;99.90;;;;;;6203042;28;20664;-79
2021/05/07 07:36:51;;;;;;;1.38;1.27;;;7.10;99.90;;;;;;6218722;28;20033;-79
2021/05/07 07:39:52;;;;;;;1.42;1.10;;;8.30;99.90;;;;;;6202550;28;20038;-79
2021/05/07 07:42:52;;;;;;;1.75;1.10;;;7.70;99.90;;;;;;6218687;28;20033;-79
2021/05/07 07:45:53;;;;;;;1.55;1.45;;;7.40;99.90;;;;;;6202719;28;20038;-79
2021/05/07 07:48:53;;;;;;;1.15;1.10;;;7.50;99.90;;;;;;6202528;28;20030;-79
2021/05/07 07:51:58;;;;;;;1.10;1.10;;;7.50;99.90;;;;;;6202172;28;20034;-82
2021/05/07 07:55:00;;;;;;;1.50;1.40;;;7.20;99.90;;;;;;6202709;28;20033;-79
2021/05/07 07:58:01;;;;;;;1.97;1.67;;;7.30;99.90;;;;;;6201943;28;20389;-80
2021/05/07 08:01:01;;;;;;;1.25;1.15;;;7.20;99.90;;;;;;6218399;28;20052;-79
2021/05/07 08:04:02;;;;;;;1.00;1.00;;;7.80;99.90;;;;;;6201533;28;20030;-79
2021/05/07 08:07:03;;;;;;;1.10;1.10;;;7.80;99.90;;;;;;6202166;28;20069;-79
2021/05/07 08:10:04;;;;;;;1.65;1.42;;;7.50;99.90;;;;;;6185732;28;20030;-81
2021/05/07 08:13:05;;;;;;;1.63;0.80;;;7.60;99.90;;;;;;6169800;28;20103;-81
2021/05/07 08:16:06;;;;;;;1.58;0.93;;;7.70;99.90;;;;;;6185951;28;20026;-79
2021/05/07 08:19:06;;;;;;;1.00;1.00;;;8.00;99.90;;;;;;6201920;28;20077;-82
2021/05/07 08:22:07;;;;;;;1.00;1.00;;;7.70;99.90;;;;;;6201930;28;20030;-82
2021/05/07 08:25:10;;;;;;;1.10;1.10;;;7.80;99.90;;;;;;6217346;28;20029;-79
2021/05/07 08:28:11;;;;;;;1.60;1.50;;;8.00;99.90;;;;;;6201509;28;20072;-82
2021/05/07 08:31:12;;;;;;;3.72;1.42;;;8.30;99.90;;;;;;6217238;28;20054;-81
2021/05/07 08:34:12;;;;;;;1.75;1.65;;;8.10;99.90;;;;;;6218575;28;20046;-79
2021/05/07 08:37:13;;;;;;;2.03;1.83;;;7.70;99.90;;;;;;6201239;28;20037;-80
2021/05/07 08:40:15;;;;;;;2.15;2.00;;;7.40;99.90;;;;;;6217351;28;20076;-84
2021/05/07 08:43:16;;;;;;;3.00;2.40;;;7.90;99.90;;;;;;6200372;28;20473;-80
2021/05/07 08:46:17;;;;;;;3.20;2.78;;;8.30;99.90;;;;;;6201095;28;20026;-80
2021/05/07 08:49:18;;;;;;;3.75;3.20;;;8.20;99.90;;;;;;6200574;28;20034;-79
2021/05/07 08:52:19;;;;;;;5.15;3.63;;;8.60;99.90;;;;;;6200713;28;20065;-80
2021/05/07 08:55:19;;;;;;;4.20;3.80;;;8.20;99.90;;;;;;6200719;28;20045;-82
2021/05/07 08:58:20;;;;;;;5.45;4.07;;;7.80;99.90;;;;;;6200647;28;20059;-83
2021/05/07 09:01:21;;;;;;;6.38;4.30;;;7.80;99.90;;;;;;6184848;28;20044;-81
2021/05/07 09:04:22;;;;;;;6.28;5.00;;;;;;;;;;6200246;28;20034;-79
2021/05/07 09:07:30;;;;;;;5.15;4.57;;;7.90;99.90;;;;;;6217261;28;20072;-80
2021/05/07 09:10:32;;;;;;;6.45;5.07;;;7.80;99.90;;;;;;6201263;28;20121;-81
2021/05/07 09:13:32;;;;;;;7.97;4.80;;;7.70;99.90;;;;;;6200421;28;20042;-80
2021/05/07 09:16:33;;;;;;;7.57;5.45;;;7.80;99.90;;;;;;6203308;28;20042;-81
2021/05/07 09:19:35;;;;;;;6.35;5.15;;;8.00;99.90;;;;;;6221620;28;20022;-81
2021/05/07 09:22:36;;;;;;;5.43;4.73;;;;;;;;;;6205233;28;20387;-82
2021/05/07 09:25:37;;;;;;;6.75;5.38;;;;;;;;;;6221163;28;20026;-79
2021/05/07 09:28:38;;;;;;;6.40;5.68;;;8.20;99.90;;;;;;6221405;28;20103;-79
2021/05/07 09:31:43;;;;;;;6.50;4.68;;;8.30;99.90;;;;;;6221021;28;20059;-79
2021/05/07 09:34:45;;;;;;;6.05;5.43;;;8.50;99.90;;;;;;6205435;28;20534;-79
2021/05/07 09:37:46;;;;;;;5.97;5.22;;;8.30;99.90;;;;;;6205039;28;20037;-79
2021/05/07 09:40:47;;;;;;;7.15;5.03;;;9.80;99.90;;;;;;6205147;28;20030;-82
2021/05/07 09:43:48;;;;;;;5.20;4.70;;;;;;;;;;6220966;28;20081;-83
2021/05/07 09:46:49;;;;;;;5.82;5.10;;;9.60;99.90;;;;;;6204601;28;20064;-79
2021/05/07 09:49:50;;;;;;;5.68;4.75;;;11.60;99.90;;;;;;6188560;28;20365;-81
2021/05/07 09:52:51;;;;;;;5.60;4.50;;;11.50;99.90;;;;;;6204261;28;20038;-79
2021/05/07 09:55:59;;;;;;;6.40;5.10;;;14.00;99.90;;;;;;6221228;28;20068;-79
2021/05/07 09:59:01;;;;;;;4.63;4.13;;;14.10;96.00;;;;;;6205149;28;20030;-82
2021/05/07 10:02:01;;;;;;;7.13;4.90;;;14.70;98.30;;;;;;6188206;28;20465;-80
2021/05/07 10:05:02;;;;;;;5.15;4.65;;;14.80;91.60;;;;;;6204334;28;20029;-82
2021/05/07 10:08:03;;;;;;;6.13;4.80;;;14.80;90.50;;;;;;6204405;28;20026;-83
2021/05/07 10:11:04;;;;;;;5.88;4.70;;;14.50;93.00;;;;;;6204088;28;20468;-81
2021/05/07 10:14:12;;;;;;;6.95;4.80;;;14.50;91.00;;;;;;6203854;28;20133;-80
2021/05/07 10:17:13;;;;;;;5.90;4.65;;;14.30;87.00;;;;;;6188874;28;20092;-83
2021/05/07 10:20:31;;;;;;;7.35;4.90;;;14.00;90.20;;;;;;6220134;28;20030;-84
2021/05/07 10:23:32;;;;;;;7.13;4.70;;;13.50;97.60;;;;;;6203859;28;20030;-81
2021/05/07 10:26:34;;;;;;;5.57;4.28;;;13.20;90.60;;;;;;6187727;28;20037;-83
2021/05/07 10:29:35;;;;;;;5.97;4.72;;;13.10;90.90;;;;;;6203822;28;20361;-81
2021/05/07 10:32:37;;;;;;;5.70;5.10;;;13.10;91.60;;;;;;6220929;28;20057;-81
2021/05/07 10:35:38;;;;;;;5.47;4.57;;;13.30;92.30;;;;;;6204041;28;20037;-81
2021/05/07 10:38:47;;;;;;;6.38;4.68;;;13.60;92.70;;;;;;6187082;28;20373;-81
2021/05/07 10:41:48;;;;;;;5.85;4.88;;;13.40;90.90;;;;;;6203342;28;20361;-79
2021/05/07 10:44:49;;;;;;;5.50;4.72;;;13.50;90.20;;;;;;6219671;28;20416;-81
2021/05/07 10:47:49;;;;;;;4.90;4.25;;;13.00;96.70;;;;;;6219933;28;20052;-80
2021/05/07 10:50:56;;;;;;;6.95;4.85;;;13.20;88.50;;;;;;6203139;28;20026;-83
2021/05/07 10:54:13;;;;;;;5.78;4.22;;;13.70;97.10;;;;;;6219486;28;20400;-80
2021/05/07 10:57:27;;;;;;;5.40;4.28;;;13.70;86.10;;;;;;6202917;28;20045;-80
2021/05/07 11:00:35;;;;;;;5.13;3.80;;;13.40;93.70;;;;;;6204567;28;20485;-80
2021/05/07 11:03:35;;;;;;;4.10;3.70;;;13.20;81.90;;;;;;6202159;28;20033;-79
2021/05/07 11:06:45;;;;;;;6.80;4.97;;;12.90;84.40;;;;;;6186806;28;20491;-79
2021/05/07 11:09:45;;;;;;;4.72;4.10;;;12.60;97.10;;;;;;6171823;28;20121;-81
2021/05/07 11:12:46;;;;;;;5.53;3.72;;;12.60;95.70;;;;;;6188978;28;20487;-79
2021/05/07 11:16:00;;;;;;;5.07;4.25;;;12.50;98.60;;;;;;6189561;28;20619;-79
2021/05/07 11:19:00;;;;;;;5.57;4.03;;;12.80;97.80;;;;;;6219413;28;20026;-78
2021/05/07 11:22:04;;;;;;;5.05;4.55;;;12.90;99.90;;;;;;6218732;28;20041;-80
2021/05/07 11:25:05;;;;;;;6.75;4.93;;;12.80;99.90;;;;;;6219987;28;20029;-83
2021/05/07 11:28:14;;;;;;;6.03;4.23;;;12.70;98.90;;;;;;6202163;28;20033;-82
2021/05/07 11:31:15;;;;;;;6.80;4.28;;;;;;;;;;6218528;28;20289;-83
2021/05/07 11:34:26;;;;;;;4.93;4.30;;;12.00;95.60;;;;;;6202079;28;20129;-82
2021/05/07 11:37:28;;;;;;;7.53;4.13;;;12.00;97.30;;;;;;6202408;28;20034;-82
2021/05/07 11:40:37;;;;;;;4.65;4.07;;;11.90;96.20;;;;;;6201160;28;20032;-82
2021/05/07 11:43:38;;;;;;;5.00;4.50;;;11.90;99.90;;;;;;6186604;28;20387;-82
2021/05/07 11:46:40;;;;;;;5.00;4.20;;;11.60;97.30;;;;;;6202642;28;20033;-81
2021/05/07 11:49:47;;;;;;;5.13;4.03;;;11.60;97.40;;;;;;6185061;28;20121;-80
2021/05/07 11:53:28;;;;;;;6.43;4.05;;;11.40;97.40;;;;;;6188324;28;20038;-80
2021/05/07 11:56:29;;;;;;;5.35;4.00;;;;;;;;;;6216873;28;20030;-80
2021/05/07 11:59:30;;;;;;;6.70;3.83;;;;;;;;;;6200119;28;20129;-79
2021/05/07 12:02:32;;;;;;;7.68;4.28;;;;;;;;;;6200476;28;20037;-81
2021/05/07 12:05:34;;;;;;;4.85;4.32;;;11.90;97.70;;;;;;6201355;28;20028;-82
2021/05/07 12:08:35;;;;;;;5.80;4.60;;;;;;;;;;6201177;28;20888;-81
2021/05/07 12:11:41;;;;;;;5.82;4.15;;;12.00;98.50;;;;;;6217984;28;20033;-81
2021/05/07 12:14:48;;;;;;;9.40;7.00;;;;;;;;;;6218340;28;20108;-82
2021/05/07 12:17:51;;;;;;;7.72;5.38;;;12.10;95.90;;;;;;6219186;28;20032;-81
2021/05/07 12:20:57;;;;;;;5.53;3.83;;;12.10;92.20;;;;;;6185362;28;20386;-82
2021/05/07 12:23:59;;;;;;;8.57;4.28;;;11.90;97.60;;;;;;6185805;28;20034;-79
2021/05/07 12:27:00;;;;;;;4.03;3.63;;;11.90;88.10;;;;;;6217100;28;20128;-81
2021/05/07 12:30:00;;;;;;;6.45;3.92;;;12.20;87.70;;;;;;6184953;28;20380;-82
2021/05/07 12:33:05;;;;;;;4.63;3.45;;;12.00;90.10;;;;;;6184978;28;20042;-81
2021/05/07 12:36:15;;;;;;;4.80;3.53;;;12.50;94.80;;;;;;6201509;28;20036;-83
2021/05/07 12:39:16;;;;;;;5.30;3.30;;;12.70;85.60;;;;;;6185628;28;20095;-85
2021/05/07 12:42:17;;;;;;;5.10;3.50;;;;;;;;;;6185216;28;20041;-88
2021/05/07 12:45:18;;;;;;;5.20;3.10;;;13.70;78.50;;;;;;6217386;28;20061;-88
2021/05/07 12:48:18;;;;;;;3.10;2.80;;;13.90;77.90;;;;;;6185042;28;20026;-85
2021/05/07 12:51:20;;;;;;;6.15;3.42;;;14.40;76.50;;;;;;6186962;28;20030;-84
2021/05/07 12:54:22;;;;;;;4.20;2.67;;;;;;;;;;6190072;28;20160;-84
2021/05/07 12:57:22;;;;;;;3.30;3.00;;;14.20;68.20;;;;;;6205889;28;20120;-84
2021/05/07 13:00:23;;;;;;;4.10;3.03;;;13.80;88.00;;;;;;6205919;28;20048;-83
2021/05/07 13:03:24;;;;;;;3.45;2.80;;;;;;;;;;6205825;28;20468;-83
2021/05/07 13:06:27;;;;;;;4.28;2.60;;;13.70;69.50;;;;;;6205121;28;20022;-84
2021/05/07 13:09:28;;;;;;;3.38;3.08;;;13.50;74.90;;;;;;6189795;28;20472;-83
2021/05/07 13:12:28;;;;;;;2.88;2.42;;;13.70;75.50;;;;;;6221469;28;20032;-84
2021/05/07 13:15:29;;;;;;;5.88;2.80;;;13.90;75.50;;;;;;6189375;28;20026;-84
2021/05/07 13:18:30;;;;;;;3.17;2.78;;;14.10;91.60;;;;;;6189414;28;20056;-83
2021/05/07 13:21:30;;;;;;;3.33;2.65;;;14.40;77.30;;;;;;6205310;28;20566;-84
2021/05/07 13:24:31;;;;;;;3.58;2.75;;;;;;;;;;6189081;28;20026;-83
2021/05/07 13:27:32;;;;;;;4.78;3.10;;;;;;;;;;6205154;28;20022;-85
2021/05/07 13:30:33;;;;;;;3.70;2.92;;;13.50;65.20;;;;;;6221553;28;20113;-84
2021/05/07 13:33:34;;;;;;;5.53;3.70;;;13.30;69.90;;;;;;6205359;28;20073;-85
2021/05/07 13:36:35;;;;;;;3.83;3.10;;;;;;;;;;6188888;28;20538;-84
2021/05/07 13:39:36;;;;;;;4.63;2.75;;;;;;;;;;6204540;28;20022;-86
2021/05/07 13:42:37;;;;;;;4.43;3.38;;;;;;;;;;6204711;28;20025;-83
2021/05/07 13:45:39;;;;;;;5.18;3.38;;;;;;;;;;6204750;28;20029;-84
2021/05/07 13:48:39;;;;;;;3.92;3.20;;;14.00;63.50;;;;;;6205269;28;20030;-83
2021/05/07 13:51:42;;;;;;;4.68;3.50;;;14.00;67.30;;;;;;6204548;28;20726;-84
2021/05/07 13:54:42;;;;;;;;;;;14.00;66.80;;;;;;6205388;28;20034;-83
2021/05/07 13:57:43;;;;;;;3.63;2.78;;;13.80;65.60;;;;;;6204727;28;19936;-84
2021/05/07 14:00:43;;;;;;;3.20;2.90;;;13.70;66.70;;;;;;6187996;28;20030;-84
2021/05/07 14:03:44;;;;;;;4.38;2.83;;;13.70;65.80;;;;;;6204365;28;20034;-86
2021/05/07 14:06:45;;;;;;;4.07;3.00;;;13.70;68.50;;;;;;6187952;28;20034;-85
2021/05/07 14:09:48;;;;;;;3.75;3.00;;;13.60;66.80;;;;;;6187364;28;20037;-85
2021/05/07 14:12:48;;;;;;;4.63;3.35;;;13.90;70.10;;;;;;6204143;28;20132;-85
2021/05/07 14:15:49;;;;;;;4.00;3.10;;;14.50;71.70;;;;;;6189723;28;20026;-83
2021/05/07 14:18:49;;;;;;;3.85;3.20;;;14.90;81.60;;;;;;6204148;28;20034;-84
2021/05/07 14:21:52;;;;;;;4.63;3.33;;;;;;;;;;6204608;28;20431;-84
2021/05/07 14:24:53;;;;;;;3.63;2.97;;;15.00;64.10;;;;;;6220040;28;20026;-87
2021/05/07 14:27:53;;;;;;;3.90;3.17;;;15.20;79.40;;;;;;6187655;28;20089;-83
2021/05/07 14:30:54;;;;;;;4.80;3.38;;;;;;;;;;6187746;28;20108;-84
2021/05/07 14:33:55;;;;;;;3.28;2.97;;;15.30;60.50;;;;;;6204056;28;20037;-84
2021/05/07 14:36:56;;;;;;;3.72;3.13;;;;;;;;;;6187320;28;20068;-84
2021/05/07 14:39:57;;;;;;;3.33;2.95;;;15.10;57.90;;;;;;6203286;28;20096;-85
2021/05/07 14:42:58;;;;;;;4.88;3.17;;;;;;;;;;6203738;28;20076;-84
2021/05/07 14:45:58;;;;;;;4.57;3.00;;;14.40;59.30;;;;;;6219719;28;20033;-83
2021/05/07 14:48:59;;;;;;;4.20;3.03;;;;;;;;;;6185881;28;20026;-83
2021/05/07 14:52:00;;;;;;;5.93;3.05;;;;;;;;;;6202998;28;20029;-84
2021/05/07 14:55:01;;;;;;;5.50;3.03;;;13.90;80.90;;;;;;6203298;28;20132;-83
2021/05/07 14:58:05;;;;;;;4.60;2.88;;;13.90;90.70;;;;;;6203383;28;20044;-83
2021/05/07 15:01:06;;;;;;;2.92;2.50;;;14.00;76.60;;;;;;6186548;28;20030;-84
2021/05/07 15:04:07;;;;;;;3.55;2.80;;;;;;;;;;6186996;28;20037;-85
2021/05/07 15:07:15;;;;;;;3.70;3.00;;;14.90;89.10;;;;;;6203014;28;20037;-87
2021/05/07 15:10:16;;;;;;;4.13;3.08;;;14.70;83.00;;;;;;6186711;28;20059;-83
2021/05/07 15:13:17;;;;;;;3.53;3.05;;;14.80;85.30;;;;;;6184973;28;20507;-82
2021/05/07 15:16:17;;;;;;;3.72;3.05;;;15.00;91.50;;;;;;6219180;28;20034;-84
2021/05/07 15:19:18;;;;;;;4.50;2.92;;;15.00;82.60;;;;;;6186374;28;20022;-85
2021/05/07 15:22:18;;;;;;;5.68;4.00;;;15.20;91.00;;;;;;6186288;28;20449;-85
2021/05/07 15:25:19;;;;;;;8.07;6.03;;;;;;;;;;6186038;28;20034;-86
2021/05/07 15:28:20;;;;;;;3.63;3.08;;;;;;;;;;6219112;28;20029;-85
2021/05/07 15:31:21;;;;;;;3.45;2.75;;;;;;;;;;6201335;28;20614;-84
2021/05/07 15:34:22;;;;;;;4.13;2.83;;;;;;;;;;6216785;28;20063;-85
2021/05/07 15:37:23;;;;;;;4.05;3.25;;;14.80;91.20;;;;;;6217056;28;20451;-85
2021/05/07 15:40:24;;;;;;;4.15;2.67;;;;;;;;;;6168702;28;20034;-86
2021/05/07 15:43:25;;;;;;;5.03;2.70;;;;;;;;;;6200731;28;20555;-86
2021/05/07 15:46:26;;;;;;;2.78;2.47;;;;;;;;;;6200876;28;20026;-86
2021/05/07 15:49:27;;;;;;;3.35;2.80;;;;;;;;;;6200881;28;20473;-84
2021/05/07 15:52:28;;;;;;;3.15;2.67;;;;;;;;;;6200596;28;20057;-86
2021/05/07 15:55:29;;;;;;;4.78;2.70;;;;;;;;;;6199002;28;20053;-85
2021/05/07 15:58:30;;;;;;;3.55;2.70;;;14.70;72.40;;;;;;6200778;28;20100;-87
2021/05/07 16:01:31;;;;;;;3.90;2.58;;;14.70;63.20;;;;;;6200575;28;20034;-88
2021/05/07 16:04:31;;;;;;;4.22;2.88;;;14.60;61.30;;;;;;6200254;28;20369;-84
2021/05/07 16:07:32;;;;;;;4.68;3.13;;;;;;;;;;6199436;28;20037;-84
2021/05/07 16:10:36;;;;;;;3.63;3.00;;;14.60;54.60;;;;;;6200458;28;20040;-84
2021/05/07 16:13:37;;;;;;;4.80;2.50;;;14.50;60.90;;;;;;6200392;28;20065;-83
2021/05/07 16:16:38;;;;;;;3.53;2.67;;;14.40;61.10;;;;;;6185207;28;20048;-83